Boley, Oklahoma
Current Conditions -  °F | °C
As of 1:55 AM on Sunday 26 Oct 2014 (Local Time) from KCQB Reporting Station
Clear Clear  
Wind Chill: 20°   Ceiling: Unl
Heat Index: 20°   Visibility: 10mi
Dew Point: 17°   Wind: 8mph
Humidity: 83%   Direction: 200°SSW
Pressure: 29.97"   Gusts: NA
Location:  35.49°N, 96.48°W
Report Text: KCQB 260655Z AUTO 20007KT 10SM CLR 20/17 A2997 RMK AO2
Loading
Personal Weather Stations






























Interactive Weather Map
Tropical Storm Tracking
New forecast layout! Learn more

10-Day Weather Forecast

Advertisements
Track Severe Weather on mobile